createdAt,value
2023-05-13T00:00:21.413Z,4.82
2023-05-13T00:02:49.006Z,4.28
2023-05-13T00:05:18.818Z,4.07
2023-05-13T00:07:48.598Z,4.35
2023-05-13T00:10:16.149Z,4.40
2023-05-13T00:12:43.446Z,4.95
2023-05-13T00:15:11.255Z,5.38
2023-05-13T00:17:39.855Z,4.50
2023-05-13T00:20:08.474Z,4.65
2023-05-13T00:22:38.072Z,5.55
2023-05-13T00:25:09.370Z,5.05
2023-05-13T00:27:36.656Z,4.88
2023-05-13T00:30:04.401Z,4.78
2023-05-13T00:32:31.835Z,5.45
2023-05-13T00:34:59.281Z,4.20
2023-05-13T00:37:26.476Z,5.03
2023-05-13T00:39:53.754Z,4.57
2023-05-13T00:42:22.644Z,5.05
2023-05-13T00:44:51.949Z,4.60
2023-05-13T00:47:19.290Z,5.35
2023-05-13T00:49:46.833Z,5.03
2023-05-13T00:52:14.330Z,4.97
2023-05-13T00:54:41.609Z,4.68
2023-05-13T00:57:09.035Z,5.63
2023-05-13T00:59:37.671Z,4.80
2023-05-13T01:02:17.797Z,5.32
2023-05-13T01:07:22.265Z,5.18
2023-05-13T01:10:00.507Z,5.65
2023-05-13T01:12:37.651Z,5.10
2023-05-13T01:15:10.008Z,5.55
2023-05-13T01:17:42.533Z,5.70
2023-05-13T01:20:11.192Z,5.40
2023-05-13T01:22:39.762Z,5.35
2023-05-13T01:25:07.906Z,4.95
2023-05-13T01:27:35.173Z,5.72
2023-05-13T01:30:03.087Z,4.25
2023-05-13T01:35:00.596Z,5.05
2023-05-13T01:37:28.524Z,4.90
2023-05-13T01:42:25.196Z,4.97
2023-05-13T01:44:52.870Z,4.90
2023-05-13T01:47:20.222Z,5.53
2023-05-13T01:49:47.487Z,5.10
2023-05-13T01:52:14.936Z,5.43
2023-05-13T01:54:42.118Z,4.75
2023-05-13T01:57:10.741Z,5.80
2023-05-13T01:59:39.010Z,5.47
2023-05-13T02:02:06.447Z,5.22
2023-05-13T02:04:33.827Z,4.93
2023-05-13T02:07:01.036Z,5.30
2023-05-13T02:09:28.236Z,5.53
2023-05-13T02:11:55.477Z,5.10
2023-05-13T02:14:24.079Z,5.30
2023-05-13T02:16:51.416Z,5.53
2023-05-13T02:19:18.698Z,5.10
2023-05-13T02:21:45.969Z,6.10
2023-05-13T02:24:13.186Z,5.97
2023-05-13T02:26:40.376Z,4.85
2023-05-13T02:29:07.943Z,5.93
2023-05-13T02:31:36.519Z,5.05
2023-05-13T02:34:04.935Z,5.35
2023-05-13T02:36:32.215Z,5.50
2023-05-13T02:38:59.786Z,5.82
2023-05-13T02:41:26.970Z,5.57
2023-05-13T02:43:54.151Z,5.68
2023-05-13T02:46:22.937Z,5.97
2023-05-13T02:48:51.526Z,5.78
2023-05-13T02:51:19.749Z,5.55
2023-05-13T02:53:46.971Z,6.03
2023-05-13T02:56:14.328Z,5.63
2023-05-13T02:58:41.554Z,5.35
2023-05-13T03:01:10.076Z,5.93
2023-05-13T03:03:37.625Z,5.95
2023-05-13T03:06:07.192Z,4.78
2023-05-13T03:08:34.497Z,5.18
2023-05-13T03:11:01.974Z,6.30
2023-05-13T03:13:29.285Z,6.72
2023-05-13T03:15:56.536Z,5.05
2023-05-13T03:18:23.809Z,5.40
2023-05-13T03:20:51.124Z,5.32
2023-05-13T03:23:20.002Z,6.88
2023-05-13T03:25:47.487Z,5.80
2023-05-13T03:28:14.685Z,6.82
2023-05-13T03:30:41.911Z,6.32
2023-05-13T03:33:09.152Z,5.78
2023-05-13T03:35:36.466Z,5.47
2023-05-13T03:38:03.742Z,5.97
2023-05-13T03:40:32.569Z,6.07
2023-05-13T03:42:59.853Z,5.60
2023-05-13T03:45:27.145Z,5.57
2023-05-13T03:47:54.392Z,5.30
2023-05-13T03:50:21.880Z,6.03
2023-05-13T03:52:49.262Z,6.47
2023-05-13T03:55:16.475Z,5.00
2023-05-13T03:57:48.877Z,5.97
2023-05-13T04:00:18.500Z,5.40
2023-05-13T04:02:45.884Z,5.50
2023-05-13T04:05:13.248Z,5.60
2023-05-13T04:07:40.656Z,5.40
2023-05-13T04:10:10.520Z,4.90
2023-05-13T04:12:38.951Z,5.90
2023-05-13T04:15:10.513Z,6.07
2023-05-13T04:17:37.791Z,6.13
2023-05-13T04:20:06.267Z,5.57
2023-05-13T04:22:35.437Z,5.47
2023-05-13T04:25:02.705Z,5.97
2023-05-13T04:27:31.313Z,5.38
2023-05-13T04:29:58.538Z,6.32
2023-05-13T04:32:27.175Z,6.22
2023-05-13T04:34:54.980Z,5.90
2023-05-13T04:37:22.310Z,5.72
2023-05-13T04:39:49.593Z,5.72
2023-05-13T04:42:17.009Z,5.63
2023-05-13T04:44:44.872Z,6.15
2023-05-13T04:47:12.305Z,6.90
2023-05-13T04:49:41.008Z,5.60
2023-05-13T04:52:08.697Z,5.38
2023-05-13T04:54:35.961Z,5.90
2023-05-13T04:57:03.240Z,5.68
2023-05-13T04:59:30.503Z,5.28
2023-05-13T05:01:57.802Z,5.25
2023-05-13T05:04:25.414Z,5.38
2023-05-13T05:06:54.096Z,5.88
2023-05-13T05:09:21.355Z,5.95
2023-05-13T05:11:48.590Z,4.72
2023-05-13T05:14:15.900Z,4.93
2023-05-13T05:16:43.126Z,5.13
2023-05-13T05:19:10.684Z,6.25
2023-05-13T05:21:37.954Z,5.72
2023-05-13T05:24:09.433Z,5.45
2023-05-13T05:26:36.707Z,5.68
2023-05-13T05:29:03.936Z,5.15
2023-05-13T05:31:31.235Z,4.95
2023-05-13T05:34:01.084Z,5.40
2023-05-13T05:36:29.741Z,5.20
2023-05-13T05:38:57.002Z,5.15
2023-05-13T05:41:25.645Z,5.65
2023-05-13T05:43:52.940Z,5.25
2023-05-13T05:46:20.259Z,5.38
2023-05-13T05:48:47.733Z,8.90
2023-05-13T05:51:15.127Z,4.93
2023-05-13T05:53:45.274Z,5.20
2023-05-13T05:56:12.473Z,6.18
2023-05-13T05:58:41.304Z,5.38
2023-05-13T06:01:08.566Z,5.18
2023-05-13T06:03:35.871Z,5.10
2023-05-13T06:06:03.631Z,5.03
2023-05-13T06:08:33.058Z,22.90
2023-05-13T06:11:01.706Z,4.43
2023-05-13T06:13:28.921Z,5.32
2023-05-13T06:15:57.888Z,5.55
2023-05-13T06:18:26.396Z,4.80
2023-05-13T06:20:53.716Z,4.63
2023-05-13T06:23:21.064Z,5.03
2023-05-13T06:25:48.623Z,4.80
2023-05-13T06:28:16.872Z,3.95
2023-05-13T06:30:44.408Z,4.95
2023-05-13T06:33:13.127Z,4.70
2023-05-13T06:35:40.425Z,5.25
2023-05-13T06:38:07.615Z,4.60
2023-05-13T06:40:34.865Z,4.03
2023-05-13T06:43:02.084Z,5.45
2023-05-13T06:45:29.298Z,4.38
2023-05-13T06:47:56.611Z,4.00
2023-05-13T06:50:25.356Z,4.30
2023-05-13T06:52:52.590Z,4.10
2023-05-13T06:55:19.861Z,4.13
2023-05-13T06:57:47.230Z,4.05
2023-05-13T07:00:15.640Z,4.15
2023-05-13T07:02:43.120Z,3.80
2023-05-13T07:05:12.032Z,4.03
2023-05-13T07:07:40.873Z,4.53
2023-05-13T07:10:08.725Z,5.25
2023-05-13T07:12:36.002Z,3.67
2023-05-13T07:15:03.469Z,3.30
2023-05-13T07:17:31.258Z,4.35
2023-05-13T07:19:58.657Z,3.97
2023-05-13T07:22:25.956Z,4.55
2023-05-13T07:24:54.547Z,3.70
2023-05-13T07:27:21.806Z,3.03
2023-05-13T07:29:49.245Z,3.63
2023-05-13T07:32:16.451Z,3.42
2023-05-13T07:34:44.146Z,3.47
2023-05-13T07:39:38.266Z,3.00
2023-05-13T07:42:08.262Z,3.28
2023-05-13T07:44:35.489Z,3.85
2023-05-13T07:47:02.713Z,3.97
2023-05-13T07:49:30.010Z,3.92
2023-05-13T07:51:57.242Z,4.03
2023-05-13T07:54:26.841Z,3.85
2023-05-13T07:56:54.098Z,3.60
2023-05-13T07:59:22.772Z,3.85
2023-05-13T08:01:50.151Z,4.10
2023-05-13T08:04:17.671Z,3.30
2023-05-13T08:09:14.576Z,3.55
2023-05-13T08:11:41.869Z,4.15
2023-05-13T08:14:09.062Z,3.65
2023-05-13T08:16:37.781Z,3.75
2023-05-13T08:19:05.114Z,3.92
2023-05-13T08:21:32.560Z,3.50
2023-05-13T08:23:59.836Z,3.25
2023-05-13T08:26:27.281Z,3.85
2023-05-13T08:28:55.190Z,3.67
2023-05-13T08:31:22.609Z,3.63
2023-05-13T08:33:51.375Z,3.35
2023-05-13T08:36:19.185Z,3.92
2023-05-13T08:38:46.514Z,3.50
2023-05-13T08:41:15.060Z,4.18
2023-05-13T08:43:42.926Z,3.45
2023-05-13T08:46:11.380Z,3.80
2023-05-13T08:48:40.653Z,3.55
2023-05-13T08:51:10.348Z,3.53
2023-05-13T08:53:39.871Z,3.35
2023-05-13T08:56:08.750Z,3.25
2023-05-13T08:58:35.982Z,3.42
2023-05-13T09:01:04.017Z,3.38
2023-05-13T09:03:32.223Z,3.15
2023-05-13T09:06:00.835Z,5.35
2023-05-13T09:08:29.741Z,2.85
2023-05-13T09:10:57.533Z,2.60
2023-05-13T09:13:25.950Z,2.72
2023-05-13T09:15:55.800Z,27.20
2023-05-13T09:18:30.208Z,3.20
2023-05-13T09:20:57.590Z,2.80
2023-05-13T09:25:53.722Z,2.58
2023-05-13T09:28:20.979Z,2.45
2023-05-13T09:33:21.263Z,2.72
2023-05-13T09:35:50.412Z,2.38
2023-05-13T09:38:21.230Z,2.90
2023-05-13T09:40:54.141Z,2.80
2023-05-13T09:43:22.709Z,2.80
2023-05-13T09:45:53.790Z,2.60
2023-05-13T09:48:22.041Z,2.60
2023-05-13T09:50:49.969Z,3.28
2023-05-13T09:53:17.502Z,2.65
2023-05-13T09:55:46.160Z,2.70
2023-05-13T09:58:14.921Z,2.30
2023-05-13T10:00:43.191Z,2.55
2023-05-13T10:03:11.155Z,2.53
2023-05-13T10:05:39.344Z,2.40
2023-05-13T10:08:08.612Z,2.40
2023-05-13T10:10:36.672Z,2.33
2023-05-13T10:13:06.169Z,3.05
2023-05-13T10:15:35.534Z,3.20
2023-05-13T10:18:07.243Z,2.40
2023-05-13T10:20:35.339Z,2.60
2023-05-13T10:23:03.071Z,2.38
2023-05-13T10:25:30.652Z,2.65
2023-05-13T10:27:58.596Z,2.80
2023-05-13T10:30:27.833Z,2.35
2023-05-13T10:32:57.076Z,2.50
2023-05-13T10:35:29.410Z,2.50
2023-05-13T10:38:01.369Z,2.63
2023-05-13T10:41:04.484Z,2.63
2023-05-13T10:43:34.218Z,2.30
2023-05-13T10:46:05.394Z,2.45
2023-05-13T10:48:41.652Z,2.33
2023-05-13T10:51:10.331Z,2.20
2023-05-13T10:53:43.760Z,2.08
2023-05-13T10:56:11.332Z,2.45
2023-05-13T10:58:39.822Z,2.95
2023-05-13T11:01:18.055Z,2.95
2023-05-13T11:03:54.881Z,2.55
2023-05-13T11:06:24.108Z,2.38
2023-05-13T11:08:55.035Z,2.92
2023-05-13T11:11:26.418Z,2.92
2023-05-13T11:13:55.402Z,2.60
2023-05-13T11:16:23.201Z,2.90
2023-05-13T11:18:53.275Z,2.47
2023-05-13T11:21:30.780Z,2.88
2023-05-13T11:24:00.889Z,2.70
2023-05-13T11:26:43.827Z,2.45
2023-05-13T11:29:11.628Z,2.55
2023-05-13T11:31:47.177Z,2.53
2023-05-13T11:34:17.254Z,2.53
2023-05-13T11:36:46.483Z,2.40
2023-05-13T11:39:15.821Z,2.20
2023-05-13T11:41:46.603Z,2.50
2023-05-13T11:44:16.019Z,2.47
2023-05-13T11:46:55.342Z,2.42
2023-05-13T11:49:43.235Z,2.70
2023-05-13T11:52:11.924Z,2.95
2023-05-13T11:54:47.401Z,2.20
2023-05-13T11:57:22.125Z,2.38
2023-05-13T11:59:54.003Z,2.00
2023-05-13T12:02:24.795Z,2.35
2023-05-13T12:04:54.276Z,2.20
2023-05-13T12:07:23.080Z,2.50
2023-05-13T12:09:52.645Z,2.67
2023-05-13T12:12:21.935Z,2.78
2023-05-13T12:14:50.054Z,2.63
2023-05-13T12:17:17.909Z,2.65
2023-05-13T12:20:12.437Z,2.60
2023-05-13T12:22:53.833Z,2.55
2023-05-13T12:25:47.162Z,2.58
2023-05-13T12:28:15.680Z,2.72
2023-05-13T12:30:49.872Z,2.80
2023-05-13T12:33:18.404Z,2.65
2023-05-13T12:35:48.748Z,2.85
2023-05-13T12:38:17.792Z,2.78
2023-05-13T12:40:45.817Z,2.53
2023-05-13T12:43:14.031Z,2.65
2023-05-13T12:45:44.880Z,2.45
2023-05-13T12:48:13.062Z,2.80
2023-05-13T12:50:40.460Z,2.67
2023-05-13T12:53:09.125Z,2.63
2023-05-13T12:55:36.421Z,3.20
2023-05-13T13:00:31.410Z,2.70
2023-05-13T13:02:58.764Z,2.88
2023-05-13T13:05:27.144Z,3.30
2023-05-13T13:07:54.441Z,2.92
2023-05-13T13:12:49.989Z,3.00
2023-05-13T13:15:17.358Z,3.33
2023-05-13T13:17:45.375Z,2.72
2023-05-13T13:20:13.020Z,2.97
2023-05-13T13:22:40.388Z,2.65
2023-05-13T13:25:08.876Z,2.95
2023-05-13T13:27:38.198Z,2.90
2023-05-13T13:30:06.950Z,3.13
2023-05-13T13:32:34.240Z,2.97
2023-05-13T13:37:28.427Z,3.05
2023-05-13T13:42:25.036Z,2.70
2023-05-13T13:47:24.443Z,2.97
2023-05-13T13:52:18.559Z,3.05
2023-05-13T13:54:45.794Z,2.90
2023-05-13T13:57:14.054Z,3.22
2023-05-13T13:59:43.109Z,3.10
2023-05-13T14:02:11.722Z,3.15
2023-05-13T14:04:39.252Z,3.05
2023-05-13T14:07:06.686Z,3.15
2023-05-13T14:09:33.884Z,3.15
2023-05-13T14:12:01.180Z,3.08
2023-05-13T14:14:28.621Z,3.20
2023-05-13T14:19:24.028Z,2.42
2023-05-13T14:21:51.296Z,2.85
2023-05-13T14:24:18.569Z,6.30
2023-05-13T14:26:45.852Z,2.95
2023-05-13T14:29:13.144Z,2.88
2023-05-13T14:31:41.391Z,3.50
2023-05-13T14:34:08.684Z,3.25
2023-05-13T14:36:37.317Z,2.92
2023-05-13T14:39:04.491Z,3.15
2023-05-13T14:41:35.729Z,3.00
2023-05-13T14:44:03.055Z,3.03
2023-05-13T14:48:57.204Z,3.03
2023-05-13T14:51:24.524Z,3.03
2023-05-13T14:53:53.096Z,3.20
2023-05-13T14:56:20.369Z,3.00
2023-05-13T14:58:47.655Z,3.10
2023-05-13T15:01:14.947Z,3.08
2023-05-13T15:06:09.299Z,2.80
2023-05-13T15:08:36.824Z,3.45
2023-05-13T15:11:05.929Z,3.15
2023-05-13T15:13:34.230Z,3.58
2023-05-13T15:16:01.735Z,3.25
2023-05-13T15:18:29.116Z,3.28
2023-05-13T15:23:23.521Z,3.28
2023-05-13T15:28:20.603Z,4.05
2023-05-13T15:30:49.146Z,4.13
2023-05-13T15:33:16.395Z,5.32
2023-05-13T15:35:43.970Z,5.57
2023-05-13T15:40:39.150Z,4.50
2023-05-13T15:43:06.446Z,5.50
2023-05-13T15:45:36.232Z,4.65
2023-05-13T15:48:04.021Z,4.72
2023-05-13T15:50:31.337Z,4.78
2023-05-13T15:52:58.624Z,5.18
2023-05-13T15:55:26.104Z,4.30
2023-05-13T15:57:53.356Z,4.10
2023-05-13T16:00:20.694Z,4.63
2023-05-13T16:05:16.575Z,4.65
2023-05-13T16:07:44.246Z,3.83
2023-05-13T16:10:11.748Z,3.97
2023-05-13T16:15:07.018Z,3.42
2023-05-13T16:17:34.256Z,4.03
2023-05-13T16:20:03.418Z,3.85
2023-05-13T16:22:32.272Z,4.40
2023-05-13T16:25:01.204Z,3.67
2023-05-13T16:27:29.179Z,4.00
2023-05-13T16:32:34.147Z,3.90
2023-05-13T16:35:01.844Z,3.70
2023-05-13T16:37:29.818Z,3.05
2023-05-13T16:39:57.180Z,3.65
2023-05-13T16:44:52.248Z,3.45
2023-05-13T16:47:19.568Z,3.50
2023-05-13T16:49:48.259Z,3.30
2023-05-13T16:52:15.586Z,3.67
2023-05-13T16:54:42.863Z,3.42
2023-05-13T16:57:10.206Z,3.97
2023-05-13T16:59:37.554Z,2.90
2023-05-13T17:02:06.079Z,3.53
2023-05-13T17:04:33.917Z,3.25
2023-05-13T17:09:32.080Z,3.83
2023-05-13T17:11:59.686Z,3.08
2023-05-13T17:14:27.250Z,3.50
2023-05-13T17:16:54.847Z,3.00
2023-05-13T17:21:49.062Z,4.22
2023-05-13T17:24:17.896Z,8.95
2023-05-13T17:26:45.078Z,3.50
2023-05-13T17:29:12.317Z,4.18
2023-05-13T17:31:39.736Z,3.45
2023-05-13T17:36:34.119Z,3.67
2023-05-13T17:39:01.464Z,3.92
2023-05-13T17:41:30.052Z,6.07
2023-05-13T17:43:57.256Z,3.60
2023-05-13T17:46:24.544Z,4.22
2023-05-13T17:48:52.220Z,3.97
2023-05-13T17:53:46.512Z,3.92
2023-05-13T17:56:13.876Z,4.30
2023-05-13T17:58:45.047Z,4.50
2023-05-13T18:01:12.287Z,3.85
2023-05-13T18:03:39.550Z,4.35
2023-05-13T18:06:07.723Z,4.50
2023-05-13T18:08:35.088Z,5.10
2023-05-13T18:11:02.323Z,4.15
2023-05-13T18:13:29.596Z,4.03
2023-05-13T18:15:58.337Z,5.45
2023-05-13T18:18:25.832Z,4.07
2023-05-13T18:20:53.039Z,4.68
2023-05-13T18:23:20.297Z,4.30
2023-05-13T18:25:55.563Z,3.83
2023-05-13T18:28:24.137Z,4.43
2023-05-13T18:30:51.429Z,4.60
2023-05-13T18:33:20.548Z,4.20
2023-05-13T18:35:48.430Z,4.53
2023-05-13T18:38:15.642Z,4.03
2023-05-13T18:40:43.126Z,3.95
2023-05-13T18:43:10.349Z,3.80
2023-05-13T18:45:38.684Z,3.97
2023-05-13T18:48:06.351Z,5.13
2023-05-13T18:50:38.502Z,4.97
2023-05-13T18:53:05.693Z,4.97
2023-05-13T18:55:33.173Z,4.80
2023-05-13T18:58:00.454Z,5.93
2023-05-13T19:00:29.087Z,5.80
2023-05-13T19:02:56.434Z,6.80
2023-05-13T19:05:23.832Z,6.20
2023-05-13T19:07:52.735Z,5.22
2023-05-13T19:10:20.275Z,6.57
2023-05-13T19:12:47.648Z,6.20
2023-05-13T19:15:14.867Z,6.72
2023-05-13T19:17:42.402Z,5.85
2023-05-13T19:20:11.296Z,6.70
2023-05-13T19:22:38.607Z,6.88
2023-05-13T19:25:08.127Z,7.60
2023-05-13T19:27:36.262Z,6.97
2023-05-13T19:30:04.367Z,8.50
2023-05-13T19:32:31.631Z,7.75
2023-05-13T19:34:58.903Z,7.90
2023-05-13T19:37:26.255Z,8.75
2023-05-13T19:39:53.504Z,9.25
2023-05-13T19:42:22.144Z,10.27
2023-05-13T19:44:49.417Z,10.52
2023-05-13T19:47:17.867Z,11.52
2023-05-13T19:49:45.445Z,10.30
2023-05-13T19:52:13.624Z,10.38
2023-05-13T19:54:42.622Z,12.90
2023-05-13T19:57:09.915Z,12.13
2023-05-13T19:59:39.572Z,12.93
2023-05-13T20:02:07.327Z,12.95
2023-05-13T20:04:34.643Z,12.57
2023-05-13T20:07:02.141Z,12.38
2023-05-13T20:09:29.396Z,12.43
2023-05-13T20:11:57.007Z,12.70
2023-05-13T20:14:24.252Z,12.60
2023-05-13T20:16:53.079Z,11.93
2023-05-13T20:19:20.796Z,12.50
2023-05-13T20:21:51.099Z,13.40
2023-05-13T20:24:18.542Z,12.73
2023-05-13T20:26:47.744Z,11.77
2023-05-13T20:29:14.952Z,12.82
2023-05-13T20:31:42.201Z,12.07
2023-05-13T20:34:13.456Z,11.68
2023-05-13T20:36:40.959Z,12.85
2023-05-13T20:39:08.218Z,16.95
2023-05-13T20:41:36.467Z,18.27
2023-05-13T20:44:03.696Z,19.92
2023-05-13T20:46:30.932Z,20.27
2023-05-13T20:48:58.301Z,20.75
2023-05-13T20:51:26.955Z,18.17
2023-05-13T20:53:54.114Z,16.70
2023-05-13T20:56:21.384Z,17.45
2023-05-13T20:58:48.887Z,15.70
2023-05-13T21:01:16.237Z,17.48
2023-05-13T21:03:43.534Z,15.13
2023-05-13T21:06:11.169Z,16.10
2023-05-13T21:08:42.240Z,13.85
2023-05-13T21:11:09.817Z,14.18
2023-05-13T21:13:37.095Z,16.33
2023-05-13T21:16:07.390Z,14.07
2023-05-13T21:18:34.746Z,13.80
2023-05-13T21:21:02.060Z,14.35
2023-05-13T21:23:29.279Z,15.18
2023-05-13T21:25:59.146Z,14.00
2023-05-13T21:28:26.321Z,14.05
2023-05-13T21:30:53.557Z,15.20
2023-05-13T21:33:20.790Z,15.57
2023-05-13T21:35:50.305Z,16.85
2023-05-13T21:38:17.536Z,17.33
2023-05-13T21:40:44.841Z,15.80
2023-05-13T21:43:13.564Z,13.55
2023-05-13T21:45:40.812Z,14.65
2023-05-13T21:48:08.217Z,14.52
2023-05-13T21:50:35.589Z,17.08
2023-05-13T21:53:03.926Z,17.60
2023-05-13T21:55:31.149Z,17.65
2023-05-13T21:57:58.692Z,17.65
2023-05-13T22:00:27.524Z,17.80
2023-05-13T22:02:54.897Z,15.98
2023-05-13T22:05:22.254Z,14.77
2023-05-13T22:07:50.934Z,13.73
2023-05-13T22:10:18.363Z,14.85
2023-05-13T22:12:45.848Z,13.43
2023-05-13T22:15:13.129Z,12.88
2023-05-13T22:17:42.466Z,12.48
2023-05-13T22:20:11.790Z,12.23
2023-05-13T22:22:39.127Z,12.77
2023-05-13T22:25:08.473Z,13.48
2023-05-13T22:27:36.854Z,14.30
2023-05-13T22:30:04.797Z,12.48
2023-05-13T22:35:00.518Z,12.57
2023-05-13T22:37:27.791Z,15.60
2023-05-13T22:39:55.093Z,14.98
2023-05-13T22:42:22.317Z,13.90
2023-05-13T22:44:49.579Z,14.82
2023-05-13T22:47:17.454Z,15.20
2023-05-13T22:49:45.977Z,13.23
2023-05-13T22:52:14.570Z,13.88
2023-05-13T22:54:42.111Z,13.73
2023-05-13T22:57:09.331Z,12.20
2023-05-13T22:59:36.845Z,13.38
2023-05-13T23:02:04.570Z,14.80
2023-05-13T23:04:31.952Z,12.88
2023-05-13T23:06:59.393Z,12.63
2023-05-13T23:09:27.968Z,14.38
2023-05-13T23:11:55.154Z,13.60
2023-05-13T23:14:22.613Z,13.15
2023-05-13T23:16:49.878Z,13.40
2023-05-13T23:19:17.074Z,14.07
2023-05-13T23:21:44.285Z,17.10
2023-05-13T23:24:11.639Z,14.48
2023-05-13T23:26:40.235Z,14.18
2023-05-13T23:29:07.816Z,15.30
2023-05-13T23:31:35.134Z,14.52
2023-05-13T23:34:03.671Z,13.90
2023-05-13T23:36:30.866Z,14.77
2023-05-13T23:38:59.133Z,14.88
2023-05-13T23:41:26.351Z,14.48
2023-05-13T23:43:54.980Z,14.50
2023-05-13T23:46:22.363Z,13.35
2023-05-13T23:48:49.675Z,13.85
2023-05-13T23:51:16.915Z,12.88
2023-05-13T23:53:44.447Z,15.57
2023-05-13T23:56:11.632Z,13.25
2023-05-13T23:58:38.812Z,12.57
